Amagimaru — JG5745 — position and weather

sailwx.info

Track history (hours):
 
Tides and Currents Weather Stations Pressure Air Temp Water Temp Dewpoint Dewpoint Depression Visibility Wind Speed Wind Dir Waves Ship Positions

Amagimaru

Last reported at 2017-Oct-19 07:00 UTC. Time now 2017-Oct-19 07:19 UTC.
Position N 35°13' E 139°43'.

Length 38 m; draft 3.4 m.

Type: Tug. MMSI: 431101065.

Date/timePositionNaut miles runAvg speedWind from/ knotsBaromVisibWave heightAir tempDewpointWater temp
2017-Oct-19 07:00N 35°13' E 139°43'0 0.0
2017-Oct-19 06:30N 35°13' E 139°43'0 0.4
2017-Oct-19 06:00N 35°13' E 139°43'2 3.9
2017-Oct-19 05:30N 35°14' E 139°46'2 3.8
2017-Oct-19 05:00N 35°13' E 139°43'0 0.5
2017-Oct-19 04:30N 35°13' E 139°43'0 0.0
2017-Oct-19 04:00N 35°13' E 139°43'0 0.0
2017-Oct-19 03:30N 35°13' E 139°43'0 0.0
2017-Oct-19 03:00N 35°13' E 139°43'0 0.0
2017-Oct-19 02:30N 35°13' E 139°43'0 0.0
2017-Oct-19 02:00N 35°13' E 139°43'0 0.0
2017-Oct-19 01:30N 35°13' E 139°43'0 0.0
2017-Oct-19 01:00N 35°13' E 139°43'0 0.0
2017-Oct-19 00:30N 35°13' E 139°43'2 4.9
2017-Oct-19 00:00N 35°12' E 139°46'0 0.7
2017-Oct-18 23:30N 35°12' E 139°45'1 1.2
2017-Oct-18 23:00N 35°13' E 139°45'4 7.9
2017-Oct-18 22:30N 35°09' E 139°46'1 3.0
2017-Oct-18 22:00N 35°11' E 139°47'4 7.7
2017-Oct-18 21:30N 35°13' E 139°43'0 0.0
2017-Oct-18 21:00N 35°13' E 139°43'0 0.0
2017-Oct-18 20:30N 35°13' E 139°43'0 0.0
2017-Oct-18 20:00N 35°13' E 139°43'2 4.4
2017-Oct-18 19:30N 35°13' E 139°46'2 3.1
2017-Oct-18 19:00N 35°13' E 139°44'1 1.3
2017-Oct-18 18:30N 35°13' E 139°43'0 0.0
2017-Oct-18 18:00N 35°13' E 139°43'0 0.0
2017-Oct-18 17:30N 35°13' E 139°43'0 0.0
2017-Oct-18 17:00N 35°13' E 139°43'0 0.0
2017-Oct-18 16:27N 35°13' E 139°43'0 0.0
2017-Oct-18 16:00N 35°13' E 139°43'0 0.0
2017-Oct-18 15:29N 35°13' E 139°43'0 0.0
2017-Oct-18 14:58N 35°13' E 139°43'0 0.0
2017-Oct-18 13:57N 35°13' E 139°43'0 0.0
2017-Oct-18 13:29N 35°13' E 139°43'0 0.0
2017-Oct-18 13:00N 35°13' E 139°43'0 0.0
2017-Oct-18 12:30N 35°13' E 139°43'0 0.0
2017-Oct-18 11:58N 35°13' E 139°43'0 0.0
2017-Oct-18 11:30N 35°13' E 139°43'0 0.0
2017-Oct-18 10:59N 35°13' E 139°43'2 4.8
2017-Oct-18 10:30N 35°12' E 139°46'1 2.6
2017-Oct-18 10:00N 35°13' E 139°45'1 2.9
2017-Oct-18 09:30N 35°13' E 139°43'0 0.0
2017-Oct-18 09:00N 35°13' E 139°43'0 0.0
2017-Oct-18 08:30N 35°13' E 139°43'0 0.0
2017-Oct-18 08:00N 35°13' E 139°43'0 0.0
2017-Oct-18 07:30N 35°13' E 139°43'0 0.0
2017-Oct-18 07:00N 35°13' E 139°43'0 0.0
2017-Oct-18 06:29N 35°13' E 139°43'0 0.0
2017-Oct-18 05:59N 35°13' E 139°43'0 0.0
2017-Oct-18 05:29N 35°13' E 139°43'0 0.0
2017-Oct-18 05:00N 35°13' E 139°43'0 0.0
2017-Oct-18 04:30N 35°13' E 139°43'0 0.0
2017-Oct-18 04:00N 35°13' E 139°43'0 0.0
2017-Oct-18 03:30N 35°13' E 139°43'1 1.1
2017-Oct-18 03:01N 35°13' E 139°44'2 3.0
2017-Oct-18 02:30N 35°14' E 139°45'2 3.7
2017-Oct-18 02:00N 35°13' E 139°43'0 0.0
2017-Oct-18 01:30N 35°13' E 139°43'2 4.7
2017-Oct-18 01:00N 35°13' E 139°46'1 2.2
2017-Oct-18 00:30N 35°14' E 139°45'2 3.3
2017-Oct-18 00:00N 35°13' E 139°43'2 3.1
2017-Oct-17 23:30N 35°13' E 139°45'1 1.2
2017-Oct-17 23:00N 35°13' E 139°45'2 3.9
2017-Oct-17 22:30N 35°13' E 139°43'0 0.0
2017-Oct-17 22:00N 35°13' E 139°43'0 0.0
2017-Oct-17 21:30N 35°13' E 139°43'0 0.0
2017-Oct-17 21:00N 35°13' E 139°43'0 0.0
2017-Oct-17 20:30N 35°13' E 139°43'2 4.0
2017-Oct-17 20:00N 35°12' E 139°45'2 4.8
2017-Oct-17 19:30N 35°10' E 139°47'4 8.6
2017-Oct-17 19:00N 35°13' E 139°43'0 0.0
2017-Oct-17 18:30N 35°13' E 139°43'0 0.0
2017-Oct-17 18:00N 35°13' E 139°43'0 0.0
2017-Oct-17 17:30N 35°13' E 139°43'0 0.0
2017-Oct-17 17:00N 35°13' E 139°43'0 0.0
2017-Oct-17 16:30N 35°13' E 139°43'0 0.0
2017-Oct-17 16:00N 35°13' E 139°43'0 0.9
2017-Oct-17 15:30N 35°13' E 139°44'2 3.2
2017-Oct-17 15:00N 35°14' E 139°46'2 3.8
2017-Oct-17 14:30N 35°13' E 139°43'0 0.2
2017-Oct-17 14:00N 35°13' E 139°43'0 0.0
2017-Oct-17 13:30N 35°13' E 139°43'0 0.0
2017-Oct-17 13:00N 35°13' E 139°43'1 1.4
2017-Oct-17 12:30N 35°13' E 139°44'1 2.6
2017-Oct-17 12:00N 35°13' E 139°46'1 2.3
2017-Oct-17 11:30N 35°13' E 139°44'1 1.9
2017-Oct-17 11:00N 35°13' E 139°43'0 0.0
2017-Oct-17 10:30N 35°13' E 139°43'0 0.1
2017-Oct-17 10:00N 35°13' E 139°43'2 4.2
2017-Oct-17 09:29N 35°13' E 139°46'0 1.0
2017-Oct-17 09:00N 35°13' E 139°45'2 3.4
2017-Oct-17 08:30N 35°13' E 139°43'0 0.0
2017-Oct-17 08:00N 35°13' E 139°43'0 0.0
2017-Oct-17 07:30N 35°13' E 139°43'4 7.3
2017-Oct-17 07:00N 35°10' E 139°46'1 2.0
2017-Oct-17 06:30N 35°10' E 139°47'1 1.1
2017-Oct-17 06:00N 35°10' E 139°47'4 8.7
2017-Oct-17 05:30N 35°13' E 139°43'0 0.0
2017-Oct-17 05:00N 35°13' E 139°43'0 0.0
2017-Oct-17 04:30N 35°13' E 139°43'0 0.0
2017-Oct-17 04:00N 35°13' E 139°43'2 5.0
2017-Oct-17 03:30N 35°12' E 139°46'2 4.1
2017-Oct-17 03:00N 35°14' E 139°45'2 4.3
2017-Oct-17 02:30N 35°13' E 139°43'0 0.0
2017-Oct-17 02:00N 35°13' E 139°43'0 0.0
2017-Oct-17 01:30N 35°13' E 139°43'0 0.0
2017-Oct-17 01:00N 35°13' E 139°43'0 0.0
2017-Oct-17 00:30N 35°13' E 139°43'0 0.0
2017-Oct-17 00:00N 35°13' E 139°43'0 0.0
2017-Oct-16 23:30N 35°13' E 139°43'0 0.0
2017-Oct-16 23:00N 35°13' E 139°43'0 0.0
2017-Oct-16 22:30N 35°13' E 139°43'2 4.0
2017-Oct-16 22:00N 35°13' E 139°46'1 1.8
2017-Oct-16 21:30N 35°13' E 139°45'1 2.5
2017-Oct-16 21:00N 35°13' E 139°43'4 7.8
2017-Oct-16 20:30N 35°10' E 139°46'2 3.0
2017-Oct-16 20:00N 35°11' E 139°45'3 5.2
2017-Oct-16 19:30N 35°13' E 139°43'0 0.0
2017-Oct-16 19:00N 35°13' E 139°43'0 0.0
2017-Oct-16 18:30N 35°13' E 139°43'0 0.0
2017-Oct-16 18:00N 35°13' E 139°43'0 0.0
2017-Oct-16 17:30N 35°13' E 139°43'0 0.0
2017-Oct-16 17:00N 35°13' E 139°43'0 0.0
2017-Oct-16 16:30N 35°13' E 139°43'3 5.7
2017-Oct-16 16:00N 35°12' E 139°46'2 3.3
2017-Oct-16 15:30N 35°10' E 139°47'4 8.7
2017-Oct-16 15:00N 35°13' E 139°43'0 0.0
2017-Oct-16 14:30N 35°13' E 139°43'0 0.0
2017-Oct-16 13:30N 35°13' E 139°43'0 0.0
2017-Oct-16 13:00N 35°13' E 139°43'0 0.0
2017-Oct-16 12:30N 35°13' E 139°43'0 0.0
2017-Oct-16 12:00N 35°13' E 139°43'0 0.0
2017-Oct-16 11:30N 35°13' E 139°43'2 4.2
2017-Oct-16 11:01N 35°13' E 139°46'1 1.4
2017-Oct-16 10:30N 35°13' E 139°45'2 3.5
2017-Oct-16 10:00N 35°13' E 139°43'0 0.0
2017-Oct-16 09:31N 35°13' E 139°43'0 0.0
2017-Oct-16 09:00N 35°13' E 139°43'2 4.4
2017-Oct-16 08:30N 35°13' E 139°46'1 1.3
2017-Oct-16 08:01N 35°13' E 139°45'2 3.5
2017-Oct-16 07:30N 35°13' E 139°43'0 0.0
2017-Oct-16 07:01N 35°13' E 139°43'0 0.0
2017-Oct-16 06:30N 35°13' E 139°43'0 0.0
2017-Oct-16 06:00N 35°13' E 139°43'0 0.0
2017-Oct-16 05:30N 35°13' E 139°43'0 0.0
2017-Oct-16 05:00N 35°13' E 139°43'2 4.3
2017-Oct-16 04:30N 35°13' E 139°46'1 1.8
2017-Oct-16 04:00N 35°14' E 139°45'2 3.8
2017-Oct-16 03:30N 35°13' E 139°43'0 0.0
2017-Oct-16 03:00N 35°13' E 139°43'0 0.0
2017-Oct-16 02:30N 35°13' E 139°43'0 0.0
2017-Oct-16 02:01N 35°13' E 139°43'0 0.0
2017-Oct-16 01:30N 35°13' E 139°43'3 5.4
2017-Oct-16 01:00N 35°11' E 139°45'1 2.3
2017-Oct-16 00:31N 35°10' E 139°46'4 7.7
2017-Oct-16 00:01N 35°13' E 139°43'0 0.0
2017-Oct-15 23:30N 35°13' E 139°43'3 6.1
2017-Oct-15 23:00N 35°11' E 139°45'0 0.5
2017-Oct-15 22:30N 35°11' E 139°46'3 6.2
2017-Oct-15 22:01N 35°13' E 139°43'0 0.0
2017-Oct-15 21:31N 35°13' E 139°43'1 2.2
2017-Oct-15 21:01N 35°13' E 139°44'1 1.2
2017-Oct-15 20:31N 35°13' E 139°45'4 8.3
2017-Oct-15 20:00N 35°09' E 139°47'2 3.6
2017-Oct-15 19:31N 35°11' E 139°46'4 7.2
2017-Oct-15 19:01N 35°13' E 139°43'0 0.0
2017-Oct-15 18:31N 35°13' E 139°43'0 0.0
2017-Oct-15 18:01N 35°13' E 139°43'0 0.0
2017-Oct-15 17:31N 35°13' E 139°43'0 0.0
2017-Oct-15 17:00N 35°13' E 139°43'0 0.0
2017-Oct-15 16:30N 35°13' E 139°43'0 0.0
2017-Oct-15 16:00N 35°13' E 139°43'2 4.1
2017-Oct-15 15:30N 35°13' E 139°46'1 1.5
2017-Oct-15 15:00N 35°12' E 139°46'2 2.5
2017-Oct-15 14:01N 35°13' E 139°43'0 0.0
2017-Oct-15 13:30N 35°13' E 139°43'0 0.0
2017-Oct-15 13:01N 35°13' E 139°43'0 0.0
2017-Oct-15 12:30N 35°13' E 139°43'0 0.0
2017-Oct-15 12:01N 35°13' E 139°43'0 0.0
2017-Oct-15 11:30N 35°13' E 139°43'0 0.0
2017-Oct-15 11:01N 35°13' E 139°43'0 0.0
2017-Oct-15 10:31N 35°13' E 139°43'1 2.6
2017-Oct-15 10:01N 35°13' E 139°45'1 1.8
2017-Oct-15 09:31N 35°14' E 139°45'2 3.5
2017-Oct-15 09:00N 35°13' E 139°43'0 0.0
2017-Oct-15 08:30N 35°13' E 139°43'0 0.0
2017-Oct-15 08:00N 35°13' E 139°43'0 0.0
2017-Oct-15 07:30N 35°13' E 139°43'2 3.8
2017-Oct-15 07:01N 35°12' E 139°45'2 4.2
2017-Oct-15 06:30N 35°11' E 139°47'4 8.0
2017-Oct-15 06:01N 35°13' E 139°43'0 0.0
2017-Oct-15 05:31N 35°13' E 139°43'0 0.0
2017-Oct-15 05:00N 35°13' E 139°43'0 0.0
2017-Oct-15 04:30N 35°13' E 139°43'4 8.8
2017-Oct-15 04:00N 35°10' E 139°46'1 1.0
2017-Oct-15 03:31N 35°10' E 139°47'4 8.1
2017-Oct-15 03:00N 35°13' E 139°43'0 0.0
2017-Oct-15 02:30N 35°13' E 139°43'0 0.0
2017-Oct-15 02:00N 35°13' E 139°43'0 0.0
2017-Oct-15 01:30N 35°13' E 139°43'3 5.4
2017-Oct-15 01:01N 35°11' E 139°45'2 3.7
2017-Oct-15 00:30N 35°10' E 139°47'4 9.2
2017-Oct-15 00:01N 35°13' E 139°43'0 0.0
2017-Oct-14 23:30N 35°13' E 139°43'2 4.9
2017-Oct-14 23:00N 35°12' E 139°46'1 2.5
2017-Oct-14 22:30N 35°13' E 139°45'1 1.6
2017-Oct-14 22:00N 35°13' E 139°44'3 6.8
2017-Oct-14 21:30N 35°10' E 139°46'3 6.7
2017-Oct-14 21:00N 35°13' E 139°44'1 2.2
2017-Oct-14 20:31N 35°12' E 139°45'3 5.8
2017-Oct-14 20:00N 35°09' E 139°46'2 3.2
2017-Oct-14 19:30N 35°11' E 139°46'3 6.4
2017-Oct-14 19:00N 35°13' E 139°43'0 0.0
2017-Oct-14 18:29N 35°13' E 139°43'0 0.0
2017-Oct-14 18:01N 35°13' E 139°43'0 0.0
2017-Oct-14 17:31N 35°13' E 139°43'0 0.0
2017-Oct-14 17:00N 35°13' E 139°43'0 0.0
2017-Oct-14 16:30N 35°13' E 139°43'0 0.0
2017-Oct-14 16:01N 35°13' E 139°43'0 0.0
2017-Oct-14 15:31N 35°13' E 139°43'0 0.0
2017-Oct-14 15:01N 35°13' E 139°43'0 0.0
2017-Oct-14 14:31N 35°13' E 139°43'0 0.0
2017-Oct-14 14:00N 35°13' E 139°43'0 0.0
2017-Oct-14 13:30N 35°13' E 139°43'1 2.3
2017-Oct-14 13:00N 35°13' E 139°45'1 2.3
2017-Oct-14 12:30N 35°14' E 139°45'2 3.9
2017-Oct-14 12:00N 35°13' E 139°43'0 0.0
2017-Oct-14 11:30N 35°13' E 139°43'0 0.0
2017-Oct-14 11:00N 35°13' E 139°43'0 0.0
2017-Oct-14 10:30N 35°13' E 139°43'0 0.0
2017-Oct-14 10:00N 35°13' E 139°43'0 0.0
2017-Oct-14 09:31N 35°13' E 139°43'2 4.2
2017-Oct-14 09:01N 35°13' E 139°46'1 1.7
2017-Oct-14 08:30N 35°13' E 139°45'2 3.2
2017-Oct-14 08:01N 35°13' E 139°43'0 0.0
2017-Oct-14 07:30N 35°13' E 139°43'0 0.6
2017-Oct-14 07:00N 35°13' E 139°43'1 2.8
2017-Oct-14 06:30N 35°13' E 139°45'2 3.5
2017-Oct-14 06:01N 35°13' E 139°43'0 0.0
2017-Oct-14 05:30N 35°13' E 139°43'0 0.0
2017-Oct-14 05:00N 35°13' E 139°43'0 0.0
2017-Oct-14 04:30N 35°13' E 139°43'2 4.6
2017-Oct-14 04:00N 35°13' E 139°46'1 2.6
2017-Oct-14 03:31N 35°13' E 139°44'1 2.0
2017-Oct-14 03:01N 35°13' E 139°43'0 0.0
2017-Oct-14 02:30N 35°13' E 139°43'0 0.0
2017-Oct-14 02:01N 35°13' E 139°43'0 0.0
2017-Oct-14 01:29N 35°13' E 139°43'4 7.0
2017-Oct-14 00:53N 35°10' E 139°46'1 2.1
2017-Oct-14 00:30N 35°11' E 139°46'4 6.1
2017-Oct-13 23:55N 35°13' E 139°43'0 0.0
2017-Oct-13 23:24N 35°13' E 139°43'0 0.0
2017-Oct-13 23:00N 35°13' E 139°43'0 0.0
2017-Oct-13 22:30N 35°13' E 139°43'0 0.0
2017-Oct-13 22:00N 35°13' E 139°43'0 0.0
2017-Oct-13 21:30N 35°13' E 139°43'4 8.8
2017-Oct-13 21:00N 35°10' E 139°46'1 2.0
2017-Oct-13 20:30N 35°11' E 139°46'4 7.3
2017-Oct-13 20:00N 35°13' E 139°43'0 0.0
2017-Oct-13 19:30N 35°13' E 139°43'5 9.3
2017-Oct-13 19:00N 35°10' E 139°47'4 7.6
2017-Oct-13 18:30N 35°13' E 139°44'1 2.3
2017-Oct-13 18:00N 35°13' E 139°43'0 0.0
2017-Oct-13 17:30N 35°13' E 139°43'0 0.0
2017-Oct-13 17:00N 35°13' E 139°43'0 0.0
2017-Oct-13 16:30N 35°13' E 139°43'0 0.0
2017-Oct-13 16:00N 35°13' E 139°43'0 0.0
2017-Oct-13 15:30N 35°13' E 139°43'4 7.5
2017-Oct-13 15:00N 35°10' E 139°45'2 3.8
2017-Oct-13 14:31N 35°11' E 139°47'4 8.5
2017-Oct-13 14:01N 35°13' E 139°43'0 0.0
2017-Oct-13 13:30N 35°13' E 139°43'0 0.0
2017-Oct-13 13:00N 35°13' E 139°43'0 0.0
2017-Oct-13 12:30N 35°13' E 139°43'0 0.0
2017-Oct-13 12:00N 35°13' E 139°43'0 0.0
2017-Oct-13 11:30N 35°13' E 139°43'2 4.6
2017-Oct-13 11:01N 35°13' E 139°46'1 2.0
2017-Oct-13 10:30N 35°14' E 139°45'2 4.0
2017-Oct-13 10:00N 35°13' E 139°43'0 0.0
2017-Oct-13 09:31N 35°13' E 139°43'3 6.7
2017-Oct-13 09:00N 35°11' E 139°46'1 2.4
2017-Oct-13 08:30N 35°10' E 139°47'4 8.6
2017-Oct-13 08:00N 35°13' E 139°43'0 0.0
2017-Oct-13 07:30N 35°13' E 139°43'2 4.1
2017-Oct-13 07:00N 35°13' E 139°46'2 3.9
2017-Oct-13 06:30N 35°13' E 139°43'0 0.2
2017-Oct-13 06:00N 35°13' E 139°43'0 0.0
2017-Oct-13 05:30N 35°13' E 139°43'0 0.0
2017-Oct-13 05:00N 35°13' E 139°43'0 0.0
2017-Oct-13 04:30N 35°13' E 139°43'0 0.0
2017-Oct-13 04:00N 35°13' E 139°43'0 0.0
2017-Oct-13 03:30N 35°13' E 139°43'0 0.0
2017-Oct-13 03:00N 35°13' E 139°43'0 0.0
2017-Oct-13 02:30N 35°13' E 139°43'0 0.0
2017-Oct-13 02:00N 35°13' E 139°43'0 0.8
2017-Oct-13 01:30N 35°13' E 139°44'5 9.2
2017-Oct-13 01:00N 35°09' E 139°47'0 0.1
2017-Oct-13 00:30N 35°09' E 139°47'1 1.0
2017-Oct-13 00:00N 35°10' E 139°47'4 8.9
2017-Oct-12 23:30N 35°13' E 139°43'0 0.1
2017-Oct-12 23:00N 35°13' E 139°43'2 3.1
2017-Oct-12 22:30N 35°12' E 139°45'3 6.7
2017-Oct-12 22:00N 35°09' E 139°47'5 9.6
2017-Oct-12 21:30N 35°13' E 139°43'0 0.0
2017-Oct-12 21:00N 35°13' E 139°43'0 0.0
2017-Oct-12 20:30N 35°13' E 139°43'0 0.0
2017-Oct-12 20:00N 35°13' E 139°43'0 0.0
2017-Oct-12 19:30N 35°13' E 139°43'0 0.0
2017-Oct-12 19:00N 35°13' E 139°43'3 5.8
2017-Oct-12 18:30N 35°11' E 139°45'2 3.4
2017-Oct-12 18:00N 35°10' E 139°47'5 9.2
2017-Oct-12 17:30N 35°13' E 139°43'0 0.2
2017-Oct-12 17:00N 35°13' E 139°43'0 0.0
2017-Oct-12 16:30N 35°13' E 139°43'0 0.0
2017-Oct-12 16:00N 35°13' E 139°43'0 0.0
2017-Oct-12 15:30N 35°13' E 139°43'0 0.0
2017-Oct-12 15:00N 35°13' E 139°43'0 0.0
2017-Oct-12 14:29N 35°13' E 139°43'0 0.0
2017-Oct-12 14:00N 35°13' E 139°43'0 0.0
2017-Oct-12 13:30N 35°13' E 139°43'0 0.0
2017-Oct-12 13:00N 35°13' E 139°43'0 0.0
2017-Oct-12 12:30N 35°13' E 139°43'0 0.0
2017-Oct-12 12:00N 35°13' E 139°43'0 0.0
2017-Oct-12 11:30N 35°13' E 139°43'0 0.0
2017-Oct-12 11:00N 35°13' E 139°43'0 0.0
2017-Oct-12 10:30N 35°13' E 139°43'0 0.0
2017-Oct-12 10:00N 35°13' E 139°43'2 4.9
2017-Oct-12 09:30N 35°12' E 139°46'1 2.0
2017-Oct-12 09:00N 35°13' E 139°45'2 3.4
2017-Oct-12 08:30N 35°13' E 139°43'0 0.0
2017-Oct-12 08:00N 35°13' E 139°43'1 1.0
2017-Oct-12 07:30N 35°13' E 139°44'1 2.5
2017-Oct-12 07:00N 35°13' E 139°45'1 2.1
2017-Oct-12 06:30N 35°12' E 139°46'1 1.8
2017-Oct-12 06:00N 35°13' E 139°45'2 3.7
2017-Oct-12 05:30N 35°13' E 139°43'0 0.0
2017-Oct-12 05:00N 35°13' E 139°43'0 0.0
2017-Oct-12 04:29N 35°13' E 139°43'0 0.0
2017-Oct-12 03:58N 35°13' E 139°43'1 2.8
2017-Oct-12 03:30N 35°13' E 139°45'1 1.2
2017-Oct-12 03:00N 35°13' E 139°45'2 3.7
2017-Oct-12 02:30N 35°13' E 139°43'0 0.0
2017-Oct-12 02:00N 35°13' E 139°43'0 0.0
2017-Oct-12 01:30N 35°13' E 139°43'0 0.0
2017-Oct-12 01:00N 35°13' E 139°43'0 0.0
2017-Oct-12 00:30N 35°13' E 139°43'2 3.1
2017-Oct-12 00:00N 35°13' E 139°45'1 2.3
2017-Oct-11 23:30N 35°14' E 139°46'2 4.8
2017-Oct-11 23:00N 35°13' E 139°43'0 0.0
2017-Oct-11 22:30N 35°13' E 139°43'0 0.0
2017-Oct-11 22:00N 35°13' E 139°43'0 0.0
2017-Oct-11 21:30N 35°13' E 139°43'3 6.7
2017-Oct-11 21:00N 35°11' E 139°46'1 2.3
2017-Oct-11 20:30N 35°11' E 139°45'2 4.6
2017-Oct-11 20:00N 35°13' E 139°43'1 2.7
2017-Oct-11 19:30N 35°13' E 139°45'1 2.5
2017-Oct-11 19:00N 35°14' E 139°46'2 4.2
2017-Oct-11 18:30N 35°13' E 139°43'0 0.0
2017-Oct-11 18:00N 35°13' E 139°43'0 0.0
2017-Oct-11 17:30N 35°13' E 139°43'0 0.0
2017-Oct-11 17:00N 35°13' E 139°43'1 0.0
2017-Oct-11 00:00N 35°13' E 139°44'1 2.8
2017-Oct-10 23:30N 35°14' E 139°46'2 4.0
2017-Oct-10 23:00N 35°13' E 139°43'0 0.0
2017-Oct-10 22:30N 35°13' E 139°43'0 0.3
2017-Oct-10 22:00N 35°13' E 139°43'2 4.6
2017-Oct-10 21:31N 35°13' E 139°46'0 0.1
2017-Oct-10 21:01N 35°13' E 139°46'1 2.9
2017-Oct-10 20:30N 35°11' E 139°47'4 6.8
2017-Oct-10 19:59N 35°13' E 139°43'0 0.0
2017-Oct-10 19:31N 35°13' E 139°43'0 0.0
2017-Oct-10 19:00N 35°13' E 139°43'0 0.0
2017-Oct-10 18:30N 35°13' E 139°43'0 0.0
2017-Oct-10 18:00N 35°13' E 139°43'0 0.0
2017-Oct-10 17:30N 35°13' E 139°43'0 0.0
2017-Oct-10 17:01N 35°13' E 139°43'0 0.0
2017-Oct-10 16:30N 35°13' E 139°43'0 0.0
2017-Oct-10 16:01N 35°13' E 139°43'0 0.0
2017-Oct-10 15:31N 35°13' E 139°43'0 0.0
2017-Oct-10 15:01N 35°13' E 139°43'4 4.2
2017-Oct-10 14:00N 35°10' E 139°47'4 8.2
2017-Oct-10 13:30N 35°13' E 139°43'0 0.0
2017-Oct-10 13:00N 35°13' E 139°43'0 0.0
2017-Oct-10 12:27N 35°13' E 139°43'0 0.0
2017-Oct-10 12:00N 35°13' E 139°43'0 0.0
2017-Oct-10 11:30N 35°13' E 139°43'1 2.7
2017-Oct-10 11:01N 35°13' E 139°45'1 1.2
2017-Oct-10 10:30N 35°14' E 139°45'1 2.9
2017-Oct-10 10:00N 35°13' E 139°43'0 0.0
2017-Oct-10 09:30N 35°13' E 139°43'0 0.0
2017-Oct-10 09:00N 35°13' E 139°43'0 0.0
2017-Oct-10 08:30N 35°13' E 139°43'2 4.5
2017-Oct-10 08:00N 35°13' E 139°46'1 1.0
2017-Oct-10 07:30N 35°13' E 139°45'2 3.9
2017-Oct-10 07:00N 35°13' E 139°43'0 0.0
2017-Oct-10 06:30N 35°13' E 139°43'0 0.0
2017-Oct-10 06:00N 35°13' E 139°43'0 0.0
2017-Oct-10 05:30N 35°13' E 139°43'0 0.0
2017-Oct-10 05:00N 35°13' E 139°43'0 0.0
2017-Oct-10 04:30N 35°13' E 139°43'1 2.5
2017-Oct-10 04:00N 35°13' E 139°45'1 1.6
2017-Oct-10 03:31N 35°13' E 139°45'2 3.6
2017-Oct-10 03:00N 35°13' E 139°43'0 0.0
2017-Oct-10 02:30N 35°13' E 139°43'0 0.0
2017-Oct-10 02:00N 35°13' E 139°43'0 0.0
2017-Oct-10 01:30N 35°13' E 139°43'0 0.6
2017-Oct-10 01:00N 35°13' E 139°43'4 8.6
2017-Oct-10 00:30N 35°10' E 139°47'4 8.8
2017-Oct-10 00:00N 35°13' E 139°43'0 0.0
2017-Oct-09 23:31N 35°13' E 139°43'0 0.0
2017-Oct-09 23:01N 35°13' E 139°43'3 5.3
2017-Oct-09 22:30N 35°12' E 139°46'1 2.5
2017-Oct-09 22:01N 35°13' E 139°45'2 3.3
2017-Oct-09 21:30N 35°13' E 139°43'0 0.0
2017-Oct-09 21:01N 35°13' E 139°43'0 0.0
2017-Oct-09 20:30N 35°13' E 139°43'0 0.0
2017-Oct-09 20:00N 35°13' E 139°43'4 7.8
2017-Oct-09 19:31N 35°10' E 139°45'2 3.3
2017-Oct-09 19:00N 35°11' E 139°47'4 7.8
2017-Oct-09 18:30N 35°13' E 139°43'0 0.0
2017-Oct-09 18:00N 35°13' E 139°43'0 0.0
2017-Oct-09 17:30N 35°13' E 139°43'0 0.0
2017-Oct-09 17:00N 35°13' E 139°43'0 0.0
2017-Oct-09 16:30N 35°13' E 139°43'0 0.0
2017-Oct-09 16:00N 35°13' E 139°43'0 0.0
2017-Oct-09 15:30N 35°13' E 139°43'0 0.0
2017-Oct-09 15:00N 35°13' E 139°43'0 0.0
2017-Oct-09 14:30N 35°13' E 139°43'0 0.0
2017-Oct-09 14:00N 35°13' E 139°43'0 0.0
2017-Oct-09 13:30N 35°13' E 139°43'0 0.0
2017-Oct-09 13:00N 35°13' E 139°43'0 0.0
2017-Oct-09 12:30N 35°13' E 139°43'0 0.0
2017-Oct-09 12:00N 35°13' E 139°43'0 0.0
2017-Oct-09 11:30N 35°13' E 139°43'0 0.0
2017-Oct-09 11:00N 35°13' E 139°43'0 0.0
2017-Oct-09 10:30N 35°13' E 139°43'0 0.0
2017-Oct-09 10:00N 35°13' E 139°43'2 4.4
2017-Oct-09 09:30N 35°13' E 139°46'1 1.9
2017-Oct-09 09:00N 35°14' E 139°45'2 3.6
2017-Oct-09 08:30N 35°13' E 139°43'2 4.5
2017-Oct-09 08:00N 35°13' E 139°46'1 1.7
2017-Oct-09 07:30N 35°13' E 139°45'  
Track history (hours):
 
Tides and Currents Weather Stations Pressure Air Temp Water Temp Dewpoint Dewpoint Depression Visibility Wind Speed Wind Dir Waves Ship Positions

Amagimaru

Last reported at 2017-Oct-19 07:00 UTC. Time now 2017-Oct-19 07:19 UTC.
Position N 35°13' E 139°43'.

Length 38 m; draft 3.4 m.

Type: Tug. MMSI: 431101065.

Date/timePositionNaut miles runAvg speedWind from/ knotsBaromVisibWave heightAir tempDewpointWater temp
2017-Oct-19 07:00N 35°13' E 139°43'0 0.0
2017-Oct-19 06:30N 35°13' E 139°43'0 0.4
2017-Oct-19 06:00N 35°13' E 139°43'2 3.9
2017-Oct-19 05:30N 35°14' E 139°46'2 3.8
2017-Oct-19 05:00N 35°13' E 139°43'0 0.5
2017-Oct-19 04:30N 35°13' E 139°43'0 0.0
2017-Oct-19 04:00N 35°13' E 139°43'0 0.0
2017-Oct-19 03:30N 35°13' E 139°43'0 0.0
2017-Oct-19 03:00N 35°13' E 139°43'0 0.0
2017-Oct-19 02:30N 35°13' E 139°43'0 0.0
2017-Oct-19 02:00N 35°13' E 139°43'0 0.0
2017-Oct-19 01:30N 35°13' E 139°43'0 0.0
2017-Oct-19 01:00N 35°13' E 139°43'0 0.0
2017-Oct-19 00:30N 35°13' E 139°43'2 4.9
2017-Oct-19 00:00N 35°12' E 139°46'0 0.7
2017-Oct-18 23:30N 35°12' E 139°45'1 1.2
2017-Oct-18 23:00N 35°13' E 139°45'4 7.9
2017-Oct-18 22:30N 35°09' E 139°46'1 3.0
2017-Oct-18 22:00N 35°11' E 139°47'4 7.7
2017-Oct-18 21:30N 35°13' E 139°43'0 0.0
2017-Oct-18 21:00N 35°13' E 139°43'0 0.0
2017-Oct-18 20:30N 35°13' E 139°43'0 0.0
2017-Oct-18 20:00N 35°13' E 139°43'2 4.4
2017-Oct-18 19:30N 35°13' E 139°46'2 3.1
2017-Oct-18 19:00N 35°13' E 139°44'1 1.3
2017-Oct-18 18:30N 35°13' E 139°43'0 0.0
2017-Oct-18 18:00N 35°13' E 139°43'0 0.0
2017-Oct-18 17:30N 35°13' E 139°43'0 0.0
2017-Oct-18 17:00N 35°13' E 139°43'0 0.0
2017-Oct-18 16:27N 35°13' E 139°43'0 0.0
2017-Oct-18 16:00N 35°13' E 139°43'0 0.0
2017-Oct-18 15:29N 35°13' E 139°43'0 0.0
2017-Oct-18 14:58N 35°13' E 139°43'0 0.0
2017-Oct-18 13:57N 35°13' E 139°43'0 0.0
2017-Oct-18 13:29N 35°13' E 139°43'0 0.0
2017-Oct-18 13:00N 35°13' E 139°43'0 0.0
2017-Oct-18 12:30N 35°13' E 139°43'0 0.0
2017-Oct-18 11:58N 35°13' E 139°43'0 0.0
2017-Oct-18 11:30N 35°13' E 139°43'0 0.0
2017-Oct-18 10:59N 35°13' E 139°43'2 4.8
2017-Oct-18 10:30N 35°12' E 139°46'1 2.6
2017-Oct-18 10:00N 35°13' E 139°45'1 2.9
2017-Oct-18 09:30N 35°13' E 139°43'0 0.0
2017-Oct-18 09:00N 35°13' E 139°43'0 0.0
2017-Oct-18 08:30N 35°13' E 139°43'0 0.0
2017-Oct-18 08:00N 35°13' E 139°43'0 0.0
2017-Oct-18 07:30N 35°13' E 139°43'0 0.0
2017-Oct-18 07:00N 35°13' E 139°43'0 0.0
2017-Oct-18 06:29N 35°13' E 139°43'0 0.0
2017-Oct-18 05:59N 35°13' E 139°43'0 0.0
2017-Oct-18 05:29N 35°13' E 139°43'0 0.0
2017-Oct-18 05:00N 35°13' E 139°43'0 0.0
2017-Oct-18 04:30N 35°13' E 139°43'0 0.0
2017-Oct-18 04:00N 35°13' E 139°43'0 0.0
2017-Oct-18 03:30N 35°13' E 139°43'1 1.1
2017-Oct-18 03:01N 35°13' E 139°44'2 3.0
2017-Oct-18 02:30N 35°14' E 139°45'2 3.7
2017-Oct-18 02:00N 35°13' E 139°43'0 0.0
2017-Oct-18 01:30N 35°13' E 139°43'2 4.7
2017-Oct-18 01:00N 35°13' E 139°46'1 2.2
2017-Oct-18 00:30N 35°14' E 139°45'2 3.3
2017-Oct-18 00:00N 35°13' E 139°43'2 3.1
2017-Oct-17 23:30N 35°13' E 139°45'1 1.2
2017-Oct-17 23:00N 35°13' E 139°45'2 3.9
2017-Oct-17 22:30N 35°13' E 139°43'0 0.0
2017-Oct-17 22:00N 35°13' E 139°43'0 0.0
2017-Oct-17 21:30N 35°13' E 139°43'0 0.0
2017-Oct-17 21:00N 35°13' E 139°43'0 0.0
2017-Oct-17 20:30N 35°13' E 139°43'2 4.0
2017-Oct-17 20:00N 35°12' E 139°45'2 4.8
2017-Oct-17 19:30N 35°10' E 139°47'4 8.6
2017-Oct-17 19:00N 35°13' E 139°43'0 0.0
2017-Oct-17 18:30N 35°13' E 139°43'0 0.0
2017-Oct-17 18:00N 35°13' E 139°43'0 0.0
2017-Oct-17 17:30N 35°13' E 139°43'0 0.0
2017-Oct-17 17:00N 35°13' E 139°43'0 0.0
2017-Oct-17 16:30N 35°13' E 139°43'0 0.0
2017-Oct-17 16:00N 35°13' E 139°43'0 0.9
2017-Oct-17 15:30N 35°13' E 139°44'2 3.2
2017-Oct-17 15:00N 35°14' E 139°46'2 3.8
2017-Oct-17 14:30N 35°13' E 139°43'0 0.2
2017-Oct-17 14:00N 35°13' E 139°43'0 0.0
2017-Oct-17 13:30N 35°13' E 139°43'0 0.0
2017-Oct-17 13:00N 35°13' E 139°43'1 1.4
2017-Oct-17 12:30N 35°13' E 139°44'1 2.6
2017-Oct-17 12:00N 35°13' E 139°46'1 2.3
2017-Oct-17 11:30N 35°13' E 139°44'1 1.9
2017-Oct-17 11:00N 35°13' E 139°43'0 0.0
2017-Oct-17 10:30N 35°13' E 139°43'0 0.1
2017-Oct-17 10:00N 35°13' E 139°43'2 4.2
2017-Oct-17 09:29N 35°13' E 139°46'0 1.0
2017-Oct-17 09:00N 35°13' E 139°45'2 3.4
2017-Oct-17 08:30N 35°13' E 139°43'0 0.0
2017-Oct-17 08:00N 35°13' E 139°43'0 0.0
2017-Oct-17 07:30N 35°13' E 139°43'4 7.3
2017-Oct-17 07:00N 35°10' E 139°46'1 2.0
2017-Oct-17 06:30N 35°10' E 139°47'1 1.1
2017-Oct-17 06:00N 35°10' E 139°47'4 8.7
2017-Oct-17 05:30N 35°13' E 139°43'0 0.0
2017-Oct-17 05:00N 35°13' E 139°43'0 0.0
2017-Oct-17 04:30N 35°13' E 139°43'0 0.0
2017-Oct-17 04:00N 35°13' E 139°43'2 5.0
2017-Oct-17 03:30N 35°12' E 139°46'2 4.1
2017-Oct-17 03:00N 35°14' E 139°45'2 4.3
2017-Oct-17 02:30N 35°13' E 139°43'0 0.0
2017-Oct-17 02:00N 35°13' E 139°43'0 0.0
2017-Oct-17 01:30N 35°13' E 139°43'0 0.0
2017-Oct-17 01:00N 35°13' E 139°43'0 0.0
2017-Oct-17 00:30N 35°13' E 139°43'0 0.0
2017-Oct-17 00:00N 35°13' E 139°43'0 0.0
2017-Oct-16 23:30N 35°13' E 139°43'0 0.0
2017-Oct-16 23:00N 35°13' E 139°43'0 0.0
2017-Oct-16 22:30N 35°13' E 139°43'2 4.0
2017-Oct-16 22:00N 35°13' E 139°46'1 1.8
2017-Oct-16 21:30N 35°13' E 139°45'1 2.5
2017-Oct-16 21:00N 35°13' E 139°43'4 7.8
2017-Oct-16 20:30N 35°10' E 139°46'2 3.0
2017-Oct-16 20:00N 35°11' E 139°45'3 5.2
2017-Oct-16 19:30N 35°13' E 139°43'0 0.0
2017-Oct-16 19:00N 35°13' E 139°43'0 0.0
2017-Oct-16 18:30N 35°13' E 139°43'0 0.0
2017-Oct-16 18:00N 35°13' E 139°43'0 0.0
2017-Oct-16 17:30N 35°13' E 139°43'0 0.0
2017-Oct-16 17:00N 35°13' E 139°43'0 0.0
2017-Oct-16 16:30N 35°13' E 139°43'3 5.7
2017-Oct-16 16:00N 35°12' E 139°46'2 3.3
2017-Oct-16 15:30N 35°10' E 139°47'4 8.7
2017-Oct-16 15:00N 35°13' E 139°43'0 0.0
2017-Oct-16 14:30N 35°13' E 139°43'0 0.0
2017-Oct-16 13:30N 35°13' E 139°43'0 0.0
2017-Oct-16 13:00N 35°13' E 139°43'0 0.0
2017-Oct-16 12:30N 35°13' E 139°43'0 0.0
2017-Oct-16 12:00N 35°13' E 139°43'0 0.0
2017-Oct-16 11:30N 35°13' E 139°43'2 4.2
2017-Oct-16 11:01N 35°13' E 139°46'1 1.4
2017-Oct-16 10:30N 35°13' E 139°45'2 3.5
2017-Oct-16 10:00N 35°13' E 139°43'0 0.0
2017-Oct-16 09:31N 35°13' E 139°43'0 0.0
2017-Oct-16 09:00N 35°13' E 139°43'2 4.4
2017-Oct-16 08:30N 35°13' E 139°46'1 1.3
2017-Oct-16 08:01N 35°13' E 139°45'2 3.5
2017-Oct-16 07:30N 35°13' E 139°43'0 0.0
2017-Oct-16 07:01N 35°13' E 139°43'0 0.0
2017-Oct-16 06:30N 35°13' E 139°43'0 0.0
2017-Oct-16 06:00N 35°13' E 139°43'0 0.0
2017-Oct-16 05:30N 35°13' E 139°43'0 0.0
2017-Oct-16 05:00N 35°13' E 139°43'2 4.3
2017-Oct-16 04:30N 35°13' E 139°46'1 1.8
2017-Oct-16 04:00N 35°14' E 139°45'2 3.8
2017-Oct-16 03:30N 35°13' E 139°43'0 0.0
2017-Oct-16 03:00N 35°13' E 139°43'0 0.0
2017-Oct-16 02:30N 35°13' E 139°43'0 0.0
2017-Oct-16 02:01N 35°13' E 139°43'0 0.0
2017-Oct-16 01:30N 35°13' E 139°43'3 5.4
2017-Oct-16 01:00N 35°11' E 139°45'1 2.3
2017-Oct-16 00:31N 35°10' E 139°46'4 7.7
2017-Oct-16 00:01N 35°13' E 139°43'0 0.0
2017-Oct-15 23:30N 35°13' E 139°43'3 6.1
2017-Oct-15 23:00N 35°11' E 139°45'0 0.5
2017-Oct-15 22:30N 35°11' E 139°46'3 6.2
2017-Oct-15 22:01N 35°13' E 139°43'0 0.0
2017-Oct-15 21:31N 35°13' E 139°43'1 2.2
2017-Oct-15 21:01N 35°13' E 139°44'1 1.2
2017-Oct-15 20:31N 35°13' E 139°45'4 8.3
2017-Oct-15 20:00N 35°09' E 139°47'2 3.6
2017-Oct-15 19:31N 35°11' E 139°46'4 7.2
2017-Oct-15 19:01N 35°13' E 139°43'0 0.0
2017-Oct-15 18:31N 35°13' E 139°43'0 0.0
2017-Oct-15 18:01N 35°13' E 139°43'0 0.0
2017-Oct-15 17:31N 35°13' E 139°43'0 0.0
2017-Oct-15 17:00N 35°13' E 139°43'0 0.0
2017-Oct-15 16:30N 35°13' E 139°43'0 0.0
2017-Oct-15 16:00N 35°13' E 139°43'2 4.1
2017-Oct-15 15:30N 35°13' E 139°46'1 1.5
2017-Oct-15 15:00N 35°12' E 139°46'2 2.5
2017-Oct-15 14:01N 35°13' E 139°43'0 0.0
2017-Oct-15 13:30N 35°13' E 139°43'0 0.0
2017-Oct-15 13:01N 35°13' E 139°43'0 0.0
2017-Oct-15 12:30N 35°13' E 139°43'0 0.0
2017-Oct-15 12:01N 35°13' E 139°43'0 0.0
2017-Oct-15 11:30N 35°13' E 139°43'0 0.0
2017-Oct-15 11:01N 35°13' E 139°43'0 0.0
2017-Oct-15 10:31N 35°13' E 139°43'1 2.6
2017-Oct-15 10:01N 35°13' E 139°45'1 1.8
2017-Oct-15 09:31N 35°14' E 139°45'2 3.5
2017-Oct-15 09:00N 35°13' E 139°43'0 0.0
2017-Oct-15 08:30N 35°13' E 139°43'0 0.0
2017-Oct-15 08:00N 35°13' E 139°43'0 0.0
2017-Oct-15 07:30N 35°13' E 139°43'2 3.8
2017-Oct-15 07:01N 35°12' E 139°45'2 4.2
2017-Oct-15 06:30N 35°11' E 139°47'4 8.0
2017-Oct-15 06:01N 35°13' E 139°43'0 0.0
2017-Oct-15 05:31N 35°13' E 139°43'0 0.0
2017-Oct-15 05:00N 35°13' E 139°43'0 0.0
2017-Oct-15 04:30N 35°13' E 139°43'4 8.8
2017-Oct-15 04:00N 35°10' E 139°46'1 1.0
2017-Oct-15 03:31N 35°10' E 139°47'4 8.1
2017-Oct-15 03:00N 35°13' E 139°43'0 0.0
2017-Oct-15 02:30N 35°13' E 139°43'0 0.0
2017-Oct-15 02:00N 35°13' E 139°43'0 0.0
2017-Oct-15 01:30N 35°13' E 139°43'3 5.4
2017-Oct-15 01:01N 35°11' E 139°45'2 3.7
2017-Oct-15 00:30N 35°10' E 139°47'4 9.2
2017-Oct-15 00:01N 35°13' E 139°43'0 0.0
2017-Oct-14 23:30N 35°13' E 139°43'2 4.9
2017-Oct-14 23:00N 35°12' E 139°46'1 2.5
2017-Oct-14 22:30N 35°13' E 139°45'1 1.6
2017-Oct-14 22:00N 35°13' E 139°44'3 6.8
2017-Oct-14 21:30N 35°10' E 139°46'3 6.7
2017-Oct-14 21:00N 35°13' E 139°44'1 2.2
2017-Oct-14 20:31N 35°12' E 139°45'3 5.8
2017-Oct-14 20:00N 35°09' E 139°46'2 3.2
2017-Oct-14 19:30N 35°11' E 139°46'3 6.4
2017-Oct-14 19:00N 35°13' E 139°43'0 0.0
2017-Oct-14 18:29N 35°13' E 139°43'0 0.0
2017-Oct-14 18:01N 35°13' E 139°43'0 0.0
2017-Oct-14 17:31N 35°13' E 139°43'0 0.0
2017-Oct-14 17:00N 35°13' E 139°43'0 0.0
2017-Oct-14 16:30N 35°13' E 139°43'0 0.0
2017-Oct-14 16:01N 35°13' E 139°43'0 0.0
2017-Oct-14 15:31N 35°13' E 139°43'0 0.0
2017-Oct-14 15:01N 35°13' E 139°43'0 0.0
2017-Oct-14 14:31N 35°13' E 139°43'0 0.0
2017-Oct-14 14:00N 35°13' E 139°43'0 0.0
2017-Oct-14 13:30N 35°13' E 139°43'1 2.3
2017-Oct-14 13:00N 35°13' E 139°45'1 2.3
2017-Oct-14 12:30N 35°14' E 139°45'2 3.9
2017-Oct-14 12:00N 35°13' E 139°43'0 0.0
2017-Oct-14 11:30N 35°13' E 139°43'0 0.0
2017-Oct-14 11:00N 35°13' E 139°43'0 0.0
2017-Oct-14 10:30N 35°13' E 139°43'0 0.0
2017-Oct-14 10:00N 35°13' E 139°43'0 0.0
2017-Oct-14 09:31N 35°13' E 139°43'2 4.2
2017-Oct-14 09:01N 35°13' E 139°46'1 1.7
2017-Oct-14 08:30N 35°13' E 139°45'2 3.2
2017-Oct-14 08:01N 35°13' E 139°43'0 0.0
2017-Oct-14 07:30N 35°13' E 139°43'0 0.6
2017-Oct-14 07:00N 35°13' E 139°43'1 2.8
2017-Oct-14 06:30N 35°13' E 139°45'2 3.5
2017-Oct-14 06:01N 35°13' E 139°43'0 0.0
2017-Oct-14 05:30N 35°13' E 139°43'0 0.0
2017-Oct-14 05:00N 35°13' E 139°43'0 0.0
2017-Oct-14 04:30N 35°13' E 139°43'2 4.6
2017-Oct-14 04:00N 35°13' E 139°46'1 2.6
2017-Oct-14 03:31N 35°13' E 139°44'1 2.0
2017-Oct-14 03:01N 35°13' E 139°43'0 0.0
2017-Oct-14 02:30N 35°13' E 139°43'0 0.0
2017-Oct-14 02:01N 35°13' E 139°43'0 0.0
2017-Oct-14 01:29N 35°13' E 139°43'4 7.0
2017-Oct-14 00:53N 35°10' E 139°46'1 2.1
2017-Oct-14 00:30N 35°11' E 139°46'4 6.1
2017-Oct-13 23:55N 35°13' E 139°43'0 0.0
2017-Oct-13 23:24N 35°13' E 139°43'0 0.0
2017-Oct-13 23:00N 35°13' E 139°43'0 0.0
2017-Oct-13 22:30N 35°13' E 139°43'0 0.0
2017-Oct-13 22:00N 35°13' E 139°43'0 0.0
2017-Oct-13 21:30N 35°13' E 139°43'4 8.8
2017-Oct-13 21:00N 35°10' E 139°46'1 2.0
2017-Oct-13 20:30N 35°11' E 139°46'4 7.3
2017-Oct-13 20:00N 35°13' E 139°43'0 0.0
2017-Oct-13 19:30N 35°13' E 139°43'5 9.3
2017-Oct-13 19:00N 35°10' E 139°47'4 7.6
2017-Oct-13 18:30N 35°13' E 139°44'1 2.3
2017-Oct-13 18:00N 35°13' E 139°43'0 0.0
2017-Oct-13 17:30N 35°13' E 139°43'0 0.0
2017-Oct-13 17:00N 35°13' E 139°43'0 0.0
2017-Oct-13 16:30N 35°13' E 139°43'0 0.0
2017-Oct-13 16:00N 35°13' E 139°43'0 0.0
2017-Oct-13 15:30N 35°13' E 139°43'4 7.5
2017-Oct-13 15:00N 35°10' E 139°45'2 3.8
2017-Oct-13 14:31N 35°11' E 139°47'4 8.5
2017-Oct-13 14:01N 35°13' E 139°43'0 0.0
2017-Oct-13 13:30N 35°13' E 139°43'0 0.0
2017-Oct-13 13:00N 35°13' E 139°43'0 0.0
2017-Oct-13 12:30N 35°13' E 139°43'0 0.0
2017-Oct-13 12:00N 35°13' E 139°43'0 0.0
2017-Oct-13 11:30N 35°13' E 139°43'2 4.6
2017-Oct-13 11:01N 35°13' E 139°46'1 2.0
2017-Oct-13 10:30N 35°14' E 139°45'2 4.0
2017-Oct-13 10:00N 35°13' E 139°43'0 0.0
2017-Oct-13 09:31N 35°13' E 139°43'3 6.7
2017-Oct-13 09:00N 35°11' E 139°46'1 2.4
2017-Oct-13 08:30N 35°10' E 139°47'4 8.6
2017-Oct-13 08:00N 35°13' E 139°43'0 0.0
2017-Oct-13 07:30N 35°13' E 139°43'2 4.1
2017-Oct-13 07:00N 35°13' E 139°46'2 3.9
2017-Oct-13 06:30N 35°13' E 139°43'0 0.2
2017-Oct-13 06:00N 35°13' E 139°43'0 0.0
2017-Oct-13 05:30N 35°13' E 139°43'0 0.0
2017-Oct-13 05:00N 35°13' E 139°43'0 0.0
2017-Oct-13 04:30N 35°13' E 139°43'0 0.0
2017-Oct-13 04:00N 35°13' E 139°43'0 0.0
2017-Oct-13 03:30N 35°13' E 139°43'0 0.0
2017-Oct-13 03:00N 35°13' E 139°43'0 0.0
2017-Oct-13 02:30N 35°13' E 139°43'0 0.0
2017-Oct-13 02:00N 35°13' E 139°43'0 0.8
2017-Oct-13 01:30N 35°13' E 139°44'5 9.2
2017-Oct-13 01:00N 35°09' E 139°47'0 0.1
2017-Oct-13 00:30N 35°09' E 139°47'1 1.0
2017-Oct-13 00:00N 35°10' E 139°47'4 8.9
2017-Oct-12 23:30N 35°13' E 139°43'0 0.1
2017-Oct-12 23:00N 35°13' E 139°43'2 3.1
2017-Oct-12 22:30N 35°12' E 139°45'3 6.7
2017-Oct-12 22:00N 35°09' E 139°47'5 9.6
2017-Oct-12 21:30N 35°13' E 139°43'0 0.0
2017-Oct-12 21:00N 35°13' E 139°43'0 0.0
2017-Oct-12 20:30N 35°13' E 139°43'0 0.0
2017-Oct-12 20:00N 35°13' E 139°43'0 0.0
2017-Oct-12 19:30N 35°13' E 139°43'0 0.0
2017-Oct-12 19:00N 35°13' E 139°43'3 5.8
2017-Oct-12 18:30N 35°11' E 139°45'2 3.4
2017-Oct-12 18:00N 35°10' E 139°47'5 9.2
2017-Oct-12 17:30N 35°13' E 139°43'0 0.2
2017-Oct-12 17:00N 35°13' E 139°43'0 0.0
2017-Oct-12 16:30N 35°13' E 139°43'0 0.0
2017-Oct-12 16:00N 35°13' E 139°43'0 0.0
2017-Oct-12 15:30N 35°13' E 139°43'0 0.0
2017-Oct-12 15:00N 35°13' E 139°43'0 0.0
2017-Oct-12 14:29N 35°13' E 139°43'0 0.0
2017-Oct-12 14:00N 35°13' E 139°43'0 0.0
2017-Oct-12 13:30N 35°13' E 139°43'0 0.0
2017-Oct-12 13:00N 35°13' E 139°43'0 0.0
2017-Oct-12 12:30N 35°13' E 139°43'0 0.0
2017-Oct-12 12:00N 35°13' E 139°43'0 0.0
2017-Oct-12 11:30N 35°13' E 139°43'0 0.0
2017-Oct-12 11:00N 35°13' E 139°43'0 0.0
2017-Oct-12 10:30N 35°13' E 139°43'0 0.0
2017-Oct-12 10:00N 35°13' E 139°43'2 4.9
2017-Oct-12 09:30N 35°12' E 139°46'1 2.0
2017-Oct-12 09:00N 35°13' E 139°45'2 3.4
2017-Oct-12 08:30N 35°13' E 139°43'0 0.0
2017-Oct-12 08:00N 35°13' E 139°43'1 1.0
2017-Oct-12 07:30N 35°13' E 139°44'1 2.5
2017-Oct-12 07:00N 35°13' E 139°45'1 2.1
2017-Oct-12 06:30N 35°12' E 139°46'1 1.8
2017-Oct-12 06:00N 35°13' E 139°45'2 3.7
2017-Oct-12 05:30N 35°13' E 139°43'0 0.0
2017-Oct-12 05:00N 35°13' E 139°43'0 0.0
2017-Oct-12 04:29N 35°13' E 139°43'0 0.0
2017-Oct-12 03:58N 35°13' E 139°43'1 2.8
2017-Oct-12 03:30N 35°13' E 139°45'1 1.2
2017-Oct-12 03:00N 35°13' E 139°45'2 3.7
2017-Oct-12 02:30N 35°13' E 139°43'0 0.0
2017-Oct-12 02:00N 35°13' E 139°43'0 0.0
2017-Oct-12 01:30N 35°13' E 139°43'0 0.0
2017-Oct-12 01:00N 35°13' E 139°43'0 0.0
2017-Oct-12 00:30N 35°13' E 139°43'2 3.1
2017-Oct-12 00:00N 35°13' E 139°45'1 2.3
2017-Oct-11 23:30N 35°14' E 139°46'2 4.8
2017-Oct-11 23:00N 35°13' E 139°43'0 0.0
2017-Oct-11 22:30N 35°13' E 139°43'0 0.0
2017-Oct-11 22:00N 35°13' E 139°43'0 0.0
2017-Oct-11 21:30N 35°13' E 139°43'3 6.7
2017-Oct-11 21:00N 35°11' E 139°46'1 2.3
2017-Oct-11 20:30N 35°11' E 139°45'2 4.6
2017-Oct-11 20:00N 35°13' E 139°43'1 2.7
2017-Oct-11 19:30N 35°13' E 139°45'1 2.5
2017-Oct-11 19:00N 35°14' E 139°46'2 4.2
2017-Oct-11 18:30N 35°13' E 139°43'0 0.0
2017-Oct-11 18:00N 35°13' E 139°43'0 0.0
2017-Oct-11 17:30N 35°13' E 139°43'0 0.0
2017-Oct-11 17:00N 35°13' E 139°43'1 0.0
2017-Oct-11 00:00N 35°13' E 139°44'1 2.8
2017-Oct-10 23:30N 35°14' E 139°46'2 4.0
2017-Oct-10 23:00N 35°13' E 139°43'0 0.0
2017-Oct-10 22:30N 35°13' E 139°43'0 0.3
2017-Oct-10 22:00N 35°13' E 139°43'2 4.6
2017-Oct-10 21:31N 35°13' E 139°46'0 0.1
2017-Oct-10 21:01N 35°13' E 139°46'1 2.9
2017-Oct-10 20:30N 35°11' E 139°47'4 6.8
2017-Oct-10 19:59N 35°13' E 139°43'0 0.0
2017-Oct-10 19:31N 35°13' E 139°43'0 0.0
2017-Oct-10 19:00N 35°13' E 139°43'0 0.0
2017-Oct-10 18:30N 35°13' E 139°43'0 0.0
2017-Oct-10 18:00N 35°13' E 139°43'0 0.0
2017-Oct-10 17:30N 35°13' E 139°43'0 0.0
2017-Oct-10 17:01N 35°13' E 139°43'0 0.0
2017-Oct-10 16:30N 35°13' E 139°43'0 0.0
2017-Oct-10 16:01N 35°13' E 139°43'0 0.0
2017-Oct-10 15:31N 35°13' E 139°43'0 0.0
2017-Oct-10 15:01N 35°13' E 139°43'4 4.2
2017-Oct-10 14:00N 35°10' E 139°47'4 8.2
2017-Oct-10 13:30N 35°13' E 139°43'0 0.0
2017-Oct-10 13:00N 35°13' E 139°43'0 0.0
2017-Oct-10 12:27N 35°13' E 139°43'0 0.0
2017-Oct-10 12:00N 35°13' E 139°43'0 0.0
2017-Oct-10 11:30N 35°13' E 139°43'1 2.7
2017-Oct-10 11:01N 35°13' E 139°45'1 1.2
2017-Oct-10 10:30N 35°14' E 139°45'1 2.9
2017-Oct-10 10:00N 35°13' E 139°43'0 0.0
2017-Oct-10 09:30N 35°13' E 139°43'0 0.0
2017-Oct-10 09:00N 35°13' E 139°43'0 0.0
2017-Oct-10 08:30N 35°13' E 139°43'2 4.5
2017-Oct-10 08:00N 35°13' E 139°46'1 1.0
2017-Oct-10 07:30N 35°13' E 139°45'2 3.9
2017-Oct-10 07:00N 35°13' E 139°43'0 0.0
2017-Oct-10 06:30N 35°13' E 139°43'0 0.0
2017-Oct-10 06:00N 35°13' E 139°43'0 0.0
2017-Oct-10 05:30N 35°13' E 139°43'0 0.0
2017-Oct-10 05:00N 35°13' E 139°43'0 0.0
2017-Oct-10 04:30N 35°13' E 139°43'1 2.5
2017-Oct-10 04:00N 35°13' E 139°45'1 1.6
2017-Oct-10 03:31N 35°13' E 139°45'2 3.6
2017-Oct-10 03:00N 35°13' E 139°43'0 0.0
2017-Oct-10 02:30N 35°13' E 139°43'0 0.0
2017-Oct-10 02:00N 35°13' E 139°43'0 0.0
2017-Oct-10 01:30N 35°13' E 139°43'0 0.6
2017-Oct-10 01:00N 35°13' E 139°43'4 8.6
2017-Oct-10 00:30N 35°10' E 139°47'4 8.8
2017-Oct-10 00:00N 35°13' E 139°43'0 0.0
2017-Oct-09 23:31N 35°13' E 139°43'0 0.0
2017-Oct-09 23:01N 35°13' E 139°43'3 5.3
2017-Oct-09 22:30N 35°12' E 139°46'1 2.5
2017-Oct-09 22:01N 35°13' E 139°45'2 3.3
2017-Oct-09 21:30N 35°13' E 139°43'0 0.0
2017-Oct-09 21:01N 35°13' E 139°43'0 0.0
2017-Oct-09 20:30N 35°13' E 139°43'0 0.0
2017-Oct-09 20:00N 35°13' E 139°43'4 7.8
2017-Oct-09 19:31N 35°10' E 139°45'2 3.3
2017-Oct-09 19:00N 35°11' E 139°47'4 7.8
2017-Oct-09 18:30N 35°13' E 139°43'0 0.0
2017-Oct-09 18:00N 35°13' E 139°43'0 0.0
2017-Oct-09 17:30N 35°13' E 139°43'0 0.0
2017-Oct-09 17:00N 35°13' E 139°43'0 0.0
2017-Oct-09 16:30N 35°13' E 139°43'0 0.0
2017-Oct-09 16:00N 35°13' E 139°43'0 0.0
2017-Oct-09 15:30N 35°13' E 139°43'0 0.0
2017-Oct-09 15:00N 35°13' E 139°43'0 0.0
2017-Oct-09 14:30N 35°13' E 139°43'0 0.0
2017-Oct-09 14:00N 35°13' E 139°43'0 0.0
2017-Oct-09 13:30N 35°13' E 139°43'0 0.0
2017-Oct-09 13:00N 35°13' E 139°43'0 0.0
2017-Oct-09 12:30N 35°13' E 139°43'0 0.0
2017-Oct-09 12:00N 35°13' E 139°43'0 0.0
2017-Oct-09 11:30N 35°13' E 139°43'0 0.0
2017-Oct-09 11:00N 35°13' E 139°43'0 0.0
2017-Oct-09 10:30N 35°13' E 139°43'0 0.0
2017-Oct-09 10:00N 35°13' E 139°43'2 4.4
2017-Oct-09 09:30N 35°13' E 139°46'1 1.9
2017-Oct-09 09:00N 35°14' E 139°45'2 3.6
2017-Oct-09 08:30N 35°13' E 139°43'2 4.5
2017-Oct-09 08:00N 35°13' E 139°46'1 1.7
2017-Oct-09 07:30N 35°13' E 139°45'  

Dump ship's entire track history